Overview Statistics Trail Chart Weather Telemetry Raw packets
 

This is the latest recevied weather packets stored in our database for station/object OE5RBO. If no packets are shown the sender has not sent any weather packets the latest 10 day(s).

<< 12 13 14 15 16 17 18 >>
Time Temp. Humidity Pressure Rain* Wind** Luminosity Snow
1788424488 22.22° C 71% 1023.2 hPa 0 mm - - -
1788423888 22.22° C 68% 1023 hPa 0 mm - - -
1788423288 22.78° C 69% 1022.9 hPa 0 mm - - -
1788422687 22.22° C 70% 1023.1 hPa 0 mm - - -
1788422087 22.22° C 71% 1023.1 hPa 0 mm - - -
1788421487 23.89° C 65% 1023 hPa 0 mm - - -
1788420886 24.44° C 66% 1022.9 hPa 0 mm - - -
1788420286 24.44° C 67% 1023 hPa 0 mm - - -
1788419685 23.33° C 70% 1023.1 hPa 0 mm - - -
1788419085 22.78° C 70% 1023 hPa 0 mm - - -
1788418485 22.22° C 70% 1022.9 hPa 0 mm - - -
1788417884 21.11° C 73% 1022.9 hPa 0 mm - - -
1788417284 20.56° C 75% 1022.9 hPa 0 mm - - -
1788416684 19.44° C 79% 1022.9 hPa 0 mm - - -
1788416083 18.89° C 81% 1022.9 hPa 0 mm - - -
1788415483 18.89° C 83% 1022.8 hPa 0 mm - - -
1788414282 17.78° C 86% 1022.7 hPa 0 mm - - -
1788413081 17.78° C 85% 1022.6 hPa 0 mm - - -
1788412481 17.78° C 85% 1022.5 hPa 0 mm - - -
1788411881 17.78° C 85% 1022.4 hPa 0 mm - - -
1788411280 17.78° C 84% 1022.4 hPa 0 mm - - -
1788410680 17.78° C 84% 1022.3 hPa 0 mm - - -
1788408879 17.78° C 86% 1022.2 hPa 0 mm - - -
1788407678 17.78° C 88% 1022.1 hPa 0 mm - - -
1788407078 17.78° C 85% 1022 hPa 0 mm - - -

* Rain since midnight (hover to see other rain measurements)
** Current wind speed in m/s (hover to see current wind gust speed)